Amo, Colorado
Current Conditions -  °F | °C
As of 3:34 AM on Thursday 23 Oct 2014 (Local Time) from KFLY Reporting Station
Clear Clear  
Wind Chill:   Ceiling: Unl
Heat Index:   Visibility: 10mi
Dew Point:   Wind: 6mph
Humidity: 91%   Direction: 310°NW
Pressure: 30.23"   Gusts: NA
Location:  39.0051°N, 104.503°W
Report Text: KFLY 230934Z AUTO 31005KT 10SM CLR 04/03 A3023 RMK AO2 T00440031
Loading
Personal Weather Stations






























Interactive Weather Map
Tropical Storm Tracking
New forecast layout! Learn more

10-Day Weather Forecast

Advertisements
Track Severe Weather on mobile